Time;durP1;ratioP1;P1;durP2;ratioP2;P2;SDS_P1;SDS_P2;PMS_P1;PMS_P2;Temp;Humidity;BMP_temperature;BMP_pressure;BME280_temperature;BME280_humidity;BME280_pressure;Samples;Min_cycle;Max_cycle;Signal;HPM_P1;HPM_P2
2022/01/31 00:00:10;;;;;;;;;;;;;;;16.94;58.37;98951.28;3150405;28;20572;-72
2022/01/31 00:01:42;;;;;;;0.40;0.25;;;;;;;16.95;58.27;98952.09;3149832;28;19928;-72
2022/01/31 00:03:13;;;;;;;0.43;0.25;;;;;;;16.93;58.35;98948.78;3148746;28;20036;-72
2022/01/31 00:04:45;;;;;;;0.43;0.30;;;;;;;16.93;58.38;98943.41;3150513;28;20048;-72
2022/01/31 00:06:17;;;;;;;0.75;0.10;;;;;;;16.92;58.39;98941.75;3151789;28;20059;-72
2022/01/31 00:07:49;;;;;;;0.38;0.28;;;;;;;16.90;58.37;98933.88;3149315;28;20044;-72
2022/01/31 00:09:22;;;;;;;0.17;0.17;;;;;;;16.91;58.37;98943.59;3150524;28;20043;-73
2022/01/31 00:10:54;;;;;;;0.20;0.20;;;;;;;16.88;58.35;98935.09;3148989;28;20068;-72
2022/01/31 00:12:32;;;;;;;0.30;0.20;;;;;;;16.87;58.44;98944.16;3150973;28;20675;-73
2022/01/31 00:14:14;;;;;;;0.22;0.20;;;;;;;16.87;58.56;98936.13;3150140;28;20106;-73
2022/01/31 00:15:52;;;;;;;;;;;;;;;16.85;58.44;98932.78;3149915;28;20099;-73
2022/01/31 00:17:24;;;;;;;1.48;0.57;;;;;;;16.84;58.49;98939.16;3150290;28;19920;-73
2022/01/31 00:18:56;;;;;;;;;;;;;;;16.82;58.49;98930.47;3149299;28;20474;-72
2022/01/31 00:20:28;;;;;;;0.20;0.20;;;;;;;16.81;58.67;98928.81;3149771;28;19974;-73
2022/01/31 00:22:00;;;;;;;0.32;0.20;;;;;;;16.80;58.41;98924.47;3149920;28;20271;-73
2022/01/31 00:23:31;;;;;;;0.20;0.20;;;;;;;16.79;58.43;98923.63;3150145;28;20047;-72
2022/01/31 00:25:03;;;;;;;;;;;;;;;16.78;58.45;98922.00;3150482;28;20689;-73
2022/01/31 00:26:35;;;;;;;0.10;0.10;;;;;;;16.79;58.59;98930.84;3150204;28;19924;-72
2022/01/31 00:28:08;;;;;;;0.20;0.20;;;;;;;16.78;58.37;98934.56;3148442;28;20052;-73
2022/01/31 00:29:40;;;;;;;0.20;0.20;;;;;;;16.75;58.52;98931.19;3149933;28;20059;-72
2022/01/31 00:31:11;;;;;;;;;;;;;;;16.75;58.52;98927.69;3149268;28;20054;-72
2022/01/31 00:32:43;;;;;;;0.30;0.22;;;;;;;16.74;58.53;98931.34;3149875;28;20539;-72
2022/01/31 00:34:15;;;;;;;0.20;0.20;;;;;;;16.73;58.54;98927.84;3152276;28;20047;-72
2022/01/31 00:35:47;;;;;;;0.30;0.25;;;;;;;16.72;58.54;98925.38;3152731;28;20044;-72
2022/01/31 00:37:19;;;;;;;0.30;0.20;;;;;;;16.71;58.62;98929.06;3154076;28;20533;-72
2022/01/31 00:38:50;;;;;;;0.30;0.20;;;;;;;16.69;58.66;98923.91;3152904;28;20177;-72
2022/01/31 00:40:22;;;;;;;0.20;0.20;;;;;;;16.68;58.60;98919.53;3149680;28;20673;-72
2022/01/31 00:41:54;;;;;;;0.30;0.20;;;;;;;16.68;58.56;98913.34;3153139;28;20508;-72
2022/01/31 00:43:27;;;;;;;0.25;0.10;;;;;;;16.66;58.61;98913.56;3152875;28;20036;-72
2022/01/31 00:45:10;;;;;;;0.35;0.25;;;;;;;16.66;58.81;98905.53;3153313;28;20048;-72
2022/01/31 00:46:46;;;;;;;0.43;0.30;;;;;;;16.66;58.63;98916.22;3152917;28;20075;-72
2022/01/31 00:48:24;;;;;;;0.20;0.20;;;;;;;16.65;58.65;98908.38;3148020;28;20056;-72
2022/01/31 00:50:06;;;;;;;0.43;0.20;;;;;;;16.63;58.59;98900.53;3150111;28;20032;-72
2022/01/31 00:51:37;;;;;;;0.22;0.22;;;;;;;16.62;58.59;98896.19;3149181;28;20117;-72
2022/01/31 00:53:09;;;;;;;0.40;0.20;;;;;;;16.61;58.68;98894.53;3152165;28;20047;-72
2022/01/31 00:54:40;;;;;;;0.10;0.10;;;;;;;16.60;58.69;98892.84;3151881;28;20051;-72
2022/01/31 00:56:12;;;;;;;0.30;0.27;;;;;;;16.59;58.72;98891.19;3151775;28;20044;-72
2022/01/31 00:57:44;;;;;;;;;;;;;;;16.58;58.64;98894.06;3151173;28;20786;-72
2022/01/31 00:59:17;;;;;;;0.35;0.22;;;;;;;16.56;58.73;98886.22;3150732;28;19920;-72
2022/01/31 01:00:49;;;;;;;0.70;0.45;;;;;;;16.55;58.62;98881.88;3149704;28;20676;-72
2022/01/31 01:02:22;;;;;;;0.25;0.20;;;;;;;16.54;58.56;98883.69;3149376;28;20048;-72
2022/01/31 01:03:53;;;;;;;0.30;0.30;;;;;;;16.54;58.60;98886.38;3151233;28;20048;-72
2022/01/31 01:05:25;;;;;;;;;;;;;;;16.52;58.70;98888.44;3150019;28;20052;-72
2022/01/31 01:06:57;;;;;;;0.40;0.10;;;;;;;16.52;58.72;98882.25;3147735;28;19923;-72
2022/01/31 01:08:28;;;;;;;0.32;0.30;;;;;;;16.51;58.76;98876.03;3149962;28;20044;-72
2022/01/31 01:10:00;;;;;;;;;;;;;;;16.50;58.88;98882.41;3148761;28;20051;-72
2022/01/31 01:11:32;;;;;;;0.25;0.20;;;;;;;16.47;58.74;98874.75;3151023;28;19923;-72
2022/01/31 01:13:04;;;;;;;0.25;0.10;;;;;;;16.47;58.82;98874.75;3151791;28;20040;-72
2022/01/31 01:14:37;;;;;;;0.20;0.20;;;;;;;16.47;58.73;98874.75;3146509;28;20040;-72
2022/01/31 01:16:10;;;;;;;0.17;0.17;;;;;;;16.46;58.71;98869.56;3150063;28;20110;-71
2022/01/31 01:17:42;;;;;;;0.25;0.20;;;;;;;16.45;58.68;98865.25;3150068;28;20048;-72
2022/01/31 01:19:14;;;;;;;0.20;0.20;;;;;;;16.45;58.84;98866.06;3148550;28;20059;-72
2022/01/31 01:20:45;;;;;;;;;;;;;;;16.42;58.83;98865.63;3148680;28;20048;-72
2022/01/31 01:22:17;;;;;;;0.32;0.10;;;;;;;16.40;58.79;98859.59;3149103;28;19924;-72
2022/01/31 01:23:49;;;;;;;;;;;;;;;16.40;58.81;98860.44;3146209;28;20421;-72
2022/01/31 01:25:20;;;;;;;0.82;0.40;;;;;;;16.39;58.93;98860.63;3148866;28;19963;-72
2022/01/31 01:26:52;;;;;;;;;;;;;;;16.38;58.86;98850.91;3151645;28;20074;-72
2022/01/31 01:28:25;;;;;;;0.68;0.28;;;;;;;16.37;58.83;98851.94;3146327;28;19955;-72
2022/01/31 01:29:58;;;;;;;0.20;0.20;;;;;;;16.36;58.95;98850.28;3149629;28;20071;-72
2022/01/31 01:31:30;;;;;;;0.50;0.30;;;;;;;16.35;58.87;98849.44;3148391;28;20048;-72
2022/01/31 01:33:07;;;;;;;0.10;0.10;;;;;;;16.35;58.94;98848.59;3150536;28;20048;-72
2022/01/31 01:34:39;;;;;;;1.73;0.10;;;;;;;16.34;58.88;98842.44;3149480;28;20036;-72
2022/01/31 01:36:11;;;;;;;0.40;0.20;;;;;;;16.33;58.79;98839.97;3150746;28;20703;-72
2022/01/31 01:37:42;;;;;;;0.10;0.10;;;;;;;16.33;58.89;98839.97;3145596;28;20078;-72
2022/01/31 01:39:14;;;;;;;0.30;0.30;;;;;;;16.31;58.84;98837.44;3149410;28;20048;-72
2022/01/31 01:40:47;;;;;;;0.10;0.10;;;;;;;16.29;58.83;98840.28;3149052;28;20048;-72
2022/01/31 01:42:18;;;;;;;0.22;0.22;;;;;;;16.29;58.82;98839.47;3150316;28;20063;-72
2022/01/31 01:43:50;;;;;;;0.20;0.20;;;;;;;16.28;58.89;98835.16;3149106;28;20114;-72
2022/01/31 01:45:25;;;;;;;0.50;0.50;;;;;;;16.27;58.97;98834.31;3148266;28;20048;-72
2022/01/31 01:46:56;;;;;;;0.43;0.20;;;;;;;16.26;58.95;98832.63;3147922;28;20048;-72
2022/01/31 01:48:28;;;;;;;0.10;0.10;;;;;;;16.25;58.99;98833.66;3147686;28;20051;-72
2022/01/31 01:50:00;;;;;;;0.13;0.13;;;;;;;16.24;58.99;98829.34;3149696;28;20545;-72
2022/01/31 01:51:32;;;;;;;0.50;0.17;;;;;;;16.25;59.02;98830.97;3149171;28;20060;-72
2022/01/31 01:53:04;;;;;;;0.20;0.20;;;;;;;16.22;58.93;98815.28;3148340;28;20052;-72
2022/01/31 01:54:36;;;;;;;0.30;0.22;;;;;;;16.22;58.85;98823.31;3147969;28;20036;-72
2022/01/31 01:56:09;;;;;;;0.43;0.20;;;;;;;16.21;58.96;98820.81;3148431;28;20051;-72
2022/01/31 01:57:40;;;;;;;0.77;0.40;;;;;;;16.20;58.96;98811.97;3150135;28;21152;-72
2022/01/31 01:59:11;;;;;;;0.73;0.30;;;;;;;16.18;58.94;98802.47;3149388;28;20044;-72
2022/01/31 02:00:50;;;;;;;;;;;;;;;16.17;58.98;98806.97;3149308;28;20043;-72
2022/01/31 02:02:22;;;;;;;0.60;0.28;;;;;;;16.16;59.01;98799.97;3148759;28;19920;-72
2022/01/31 02:03:54;;;;;;;0.22;0.10;;;;;;;16.15;59.00;98798.31;3146072;28;20588;-72
2022/01/31 02:05:26;;;;;;;0.20;0.20;;;;;;;16.14;58.96;98793.97;3150443;28;20055;-72
2022/01/31 02:06:58;;;;;;;0.10;0.10;;;;;;;16.13;58.99;98781.63;3151755;28;20044;-72
2022/01/31 02:08:39;;;;;;;0.30;0.30;;;;;;;16.13;58.94;98792.31;3148447;28;20071;-72
2022/01/31 02:10:12;;;;;;;0.15;0.15;;;;;;;16.12;59.08;98785.28;3149163;28;20051;-72
2022/01/31 02:11:43;;;;;;;0.22;0.17;;;;;;;16.12;58.97;98779.94;3148479;28;20051;-72
2022/01/31 02:13:16;;;;;;;0.32;0.32;;;;;;;16.11;58.93;98783.63;3147907;28;20048;-72
2022/01/31 02:14:47;;;;;;;0.35;0.30;;;;;;;16.09;59.16;98777.63;3147653;28;20067;-72
2022/01/31 02:16:20;;;;;;;;;;;;;;;16.08;58.90;98778.66;3150328;28;20043;-72
2022/01/31 02:17:51;;;;;;;0.35;0.20;;;;;;;16.06;59.15;98776.16;3148836;28;19924;-72
2022/01/31 02:19:23;;;;;;;0.77;0.20;;;;;;;16.06;59.09;98778.00;3144924;28;20113;-71
2022/01/31 02:20:56;;;;;;;0.25;0.20;;;;;;;16.06;59.25;98772.66;3148553;28;20050;-72
2022/01/31 02:22:28;;;;;;;0.10;0.10;;;;;;;16.04;59.25;98777.34;3148721;28;20044;-72
2022/01/31 02:24:00;;;;;;;;;;;;;;;16.04;59.13;98769.31;3148045;28;20072;-72
2022/01/31 02:25:32;;;;;;;0.38;0.28;;;;;;;16.05;59.05;98771.00;3148568;28;19928;-72
2022/01/31 02:27:03;;;;;;;;;;;;;;;16.03;59.06;98773.84;3149593;28;20084;-72
2022/01/31 02:28:38;;;;;;;0.20;0.20;;;;;;;16.02;59.31;98768.69;3147918;28;20351;-72
2022/01/31 02:30:11;;;;;;;0.70;0.28;;;;;;;16.02;59.08;98768.69;3149482;28;20082;-72
2022/01/31 02:31:44;;;;;;;0.45;0.30;;;;;;;16.01;59.21;98765.16;3148697;28;20048;-72
2022/01/31 02:33:16;;;;;;;0.30;0.20;;;;;;;15.99;59.20;98763.69;3148589;28;20791;-72
2022/01/31 02:34:48;;;;;;;0.40;0.40;;;;;;;15.97;59.31;98747.84;3146187;28;20057;-72
2022/01/31 02:36:21;;;;;;;1.25;0.20;;;;;;;15.98;59.11;98754.00;3147254;28;20060;-72
2022/01/31 02:37:53;;;;;;;0.40;0.30;;;;;;;15.97;59.07;98747.00;3148239;28;20048;-72
2022/01/31 02:39:24;;;;;;;;;;;;;;;15.95;59.11;98744.50;3148514;28;20416;-72
2022/01/31 02:40:56;;;;;;;0.10;0.10;;;;;;;15.95;59.24;98741.00;3147875;28;19928;-72
2022/01/31 02:42:28;;;;;;;0.20;0.20;;;;;;;15.95;59.34;98746.34;3146520;28;20047;-72
2022/01/31 02:44:00;;;;;;;1.10;0.50;;;;;;;15.93;59.13;98740.34;3147584;28;20044;-72
2022/01/31 02:45:32;;;;;;;0.15;0.15;;;;;;;15.92;59.40;98746.72;3148628;28;20047;-72
2022/01/31 02:47:09;;;;;;;0.20;0.20;;;;;;;15.91;59.16;98747.72;3148438;28;20618;-72
2022/01/31 02:48:41;;;;;;;0.40;0.30;;;;;;;15.89;59.05;98737.22;3146319;28;20054;-72
2022/01/31 02:50:15;;;;;;;0.13;0.10;;;;;;;15.88;59.30;98734.72;3147414;28;20059;-72
2022/01/31 02:51:50;;;;;;;0.40;0.20;;;;;;;15.89;59.19;98733.72;3147342;28;20054;-72
2022/01/31 02:53:25;;;;;;;0.63;0.40;;;;;;;15.86;59.19;98735.75;3147864;28;20141;-72
2022/01/31 02:54:57;;;;;;;0.30;0.30;;;;;;;15.86;59.22;98735.75;3148106;28;20048;-72
2022/01/31 02:56:29;;;;;;;0.65;0.40;;;;;;;15.85;59.28;98734.09;3147444;28;20047;-72
2022/01/31 02:58:01;;;;;;;0.10;0.10;;;;;;;15.85;59.24;98725.22;3148411;28;20052;-72
2022/01/31 02:59:32;;;;;;;0.30;0.28;;;;;;;15.84;59.34;98727.06;3145593;28;20063;-72
2022/01/31 03:01:04;;;;;;;;;;;;;;;15.83;59.23;98722.75;3147563;28;20622;-72
2022/01/31 03:02:36;;;;;;;0.43;0.43;;;;;;;15.82;59.50;98726.44;3147852;28;19924;-72
2022/01/31 03:04:08;;;;;;;0.20;0.20;;;;;;;15.82;59.31;98720.22;3148845;28;20060;-72
2022/01/31 03:05:40;;;;;;;0.30;0.30;;;;;;;15.82;59.30;98729.13;3146378;28;20052;-72
2022/01/31 03:07:13;;;;;;;0.20;0.13;;;;;;;15.81;59.24;98730.09;3145318;28;20405;-72
2022/01/31 03:08:45;;;;;;;0.38;0.20;;;;;;;15.80;59.40;98731.13;3148959;28;20843;-72
2022/01/31 03:10:16;;;;;;;0.38;0.20;;;;;;;15.79;59.40;98721.44;3149303;28;20051;-72
2022/01/31 03:11:48;;;;;;;0.40;0.40;;;;;;;15.77;59.54;98712.78;3147725;28;20047;-72
2022/01/31 03:13:19;;;;;;;;;;;;;;;15.78;59.33;98714.44;3148471;28;20067;-72
2022/01/31 03:14:50;;;;;;;0.15;0.15;;;;;;;15.76;59.44;98711.09;3146993;28;19947;-72
2022/01/31 03:16:22;;;;;;;0.20;0.10;;;;;;;15.75;59.31;98712.13;3146844;28;20044;-72
2022/01/31 03:17:53;;;;;;;;;;;;;;;15.75;59.46;98720.16;3148549;28;20496;-72
2022/01/31 03:19:25;;;;;;;0.20;0.20;;;;;;;15.74;59.55;98718.50;3144281;28;19923;-72
2022/01/31 03:20:57;;;;;;;;;;;;;;;15.73;59.25;98711.47;3148031;28;20048;-72
2022/01/31 03:22:30;;;;;;;0.30;0.30;;;;;;;15.72;59.43;98709.81;3148188;28;19931;-72
2022/01/31 03:24:02;;;;;;;0.30;0.20;;;;;;;15.72;59.55;98712.50;3146914;28;20741;-72
2022/01/31 03:25:34;;;;;;;1.45;0.30;;;;;;;15.71;59.47;98713.53;3146339;28;20048;-72
2022/01/31 03:27:06;;;;;;;0.32;0.32;;;;;;;15.70;59.32;98705.66;3146459;28;21271;-72
2022/01/31 03:28:38;;;;;;;0.10;0.10;;;;;;;15.71;59.72;98701.97;3149037;28;20067;-72
2022/01/31 03:30:13;;;;;;;0.20;0.20;;;;;;;15.69;59.39;98704.84;3145174;28;20078;-72
2022/01/31 03:31:45;;;;;;;0.50;0.38;;;;;;;15.68;59.45;98703.16;3147940;28;20078;-72
2022/01/31 03:33:16;;;;;;;0.20;0.10;;;;;;;15.68;59.53;98697.81;3148383;28;20132;-72
2022/01/31 03:34:48;;;;;;;;;;;;;;;15.67;59.61;98704.16;3146463;28;20118;-72
2022/01/31 03:36:20;;;;;;;0.55;0.25;;;;;;;15.66;59.56;98699.81;3148207;28;19931;-72
2022/01/31 03:37:54;;;;;;;0.28;0.28;;;;;;;15.66;59.55;98694.47;3147019;28;20071;-72
2022/01/31 03:39:25;;;;;;;0.65;0.28;;;;;;;15.65;59.45;98687.47;3147150;28;20128;-72
2022/01/31 03:40:57;;;;;;;;;;;;;;;15.65;59.53;98684.78;3146986;28;20057;-72
2022/01/31 03:42:28;;;;;;;0.88;0.13;;;;;;;15.63;59.59;98681.47;3147759;28;19924;-72
2022/01/31 03:44:00;;;;;;;0.53;0.17;;;;;;;15.62;59.38;98690.50;3148085;28;20540;-72
2022/01/31 03:45:34;;;;;;;0.30;0.30;;;;;;;15.62;59.65;98693.16;3146735;28;20079;-72
2022/01/31 03:47:06;;;;;;;0.55;0.28;;;;;;;15.62;59.57;98690.50;3146302;28;20283;-72
2022/01/31 03:48:38;;;;;;;0.40;0.28;;;;;;;15.61;59.62;98686.19;3147059;28;20048;-72
2022/01/31 03:50:10;;;;;;;0.35;0.35;;;;;;;15.60;59.40;98685.34;3147148;28;20416;-72
2022/01/31 03:51:42;;;;;;;0.20;0.20;;;;;;;15.60;59.58;98681.81;3145417;28;20072;-72
2022/01/31 03:53:15;;;;;;;0.50;0.20;;;;;;;15.58;59.53;98681.19;3146985;28;20044;-72
2022/01/31 03:54:47;;;;;;;0.43;0.30;;;;;;;15.57;59.55;98674.16;3147298;28;20464;-72
2022/01/31 03:56:19;;;;;;;0.22;0.20;;;;;;;15.58;59.60;98681.19;3145199;28;20329;-72
2022/01/31 03:57:51;;;;;;;0.68;0.20;;;;;;;15.56;59.67;98676.03;3147404;28;20052;-72
2022/01/31 03:59:23;;;;;;;0.30;0.30;;;;;;;15.56;59.58;98669.84;3145080;28;20145;-72
2022/01/31 04:00:55;;;;;;;0.45;0.35;;;;;;;15.55;59.49;98668.19;3147715;28;20080;-72
2022/01/31 04:02:27;;;;;;;0.57;0.57;;;;;;;15.54;59.68;98672.69;3147748;28;20048;-72
2022/01/31 04:04:01;;;;;;;0.22;0.20;;;;;;;15.53;59.70;98671.03;3146497;28;20051;-72
2022/01/31 04:05:33;;;;;;;0.50;0.30;;;;;;;15.52;59.58;98665.91;3145790;28;21057;-72
2022/01/31 04:07:05;;;;;;;;;;;;;;;15.53;59.63;98664.88;3147841;28;20056;-72
2022/01/31 04:08:38;;;;;;;0.35;0.35;;;;;;;15.52;59.58;98656.03;3148634;28;19931;-72
2022/01/31 04:10:10;;;;;;;0.17;0.17;;;;;;;15.52;59.72;98660.53;3150509;28;20055;-72
2022/01/31 04:11:43;;;;;;;0.60;0.30;;;;;;;15.50;59.73;98659.88;3151224;28;20421;-72
2022/01/31 04:13:16;;;;;;;0.30;0.30;;;;;;;15.50;59.54;98657.22;3148918;28;20044;-72
2022/01/31 04:14:48;;;;;;;0.47;0.17;;;;;;;15.51;59.71;98656.19;3150701;28;20126;-72
2022/01/31 04:16:19;;;;;;;;;;;;;;;15.51;59.63;98650.84;3150882;28;20055;-72
2022/01/31 04:17:51;;;;;;;1.20;0.20;;;;;;;15.53;59.86;98649.66;3150183;28;19977;-72
2022/01/31 04:19:24;;;;;;;0.35;0.30;;;;;;;15.53;59.74;98643.47;3147880;28;20117;-72
2022/01/31 04:20:56;;;;;;;0.82;0.40;;;;;;;15.54;59.92;98639.78;3150827;28;20048;-72
2022/01/31 04:22:31;;;;;;;;;;;;;;;15.54;59.89;98634.44;3148936;28;20043;-72
2022/01/31 04:24:04;;;;;;;0.43;0.43;;;;;;;15.55;59.66;98630.78;3150833;28;19963;-72
2022/01/31 04:25:45;;;;;;;0.20;0.20;;;;;;;15.55;59.85;98618.22;3149807;28;20040;-72
2022/01/31 04:27:19;;;;;;;0.30;0.30;;;;;;;15.55;59.83;98623.56;3149660;28;20048;-72
2022/01/31 04:29:01;;;;;;;0.90;0.50;;;;;;;15.56;59.75;98619.06;3150259;28;20053;-72
2022/01/31 04:30:36;;;;;;;0.40;0.30;;;;;;;15.56;59.73;98614.53;3149538;28;20150;-72
2022/01/31 04:32:08;;;;;;;0.10;0.10;;;;;;;15.57;59.81;98610.00;3149413;28;20044;-72
2022/01/31 04:33:42;;;;;;;0.30;0.13;;;;;;;15.58;59.75;98617.03;3149889;28;20051;-72
2022/01/31 04:35:13;;;;;;;0.25;0.20;;;;;;;15.59;59.77;98611.47;3147967;28;20051;-72
2022/01/31 04:36:45;;;;;;;;;;;;;;;15.59;59.70;98613.34;3151415;28;20165;-72
2022/01/31 04:38:16;;;;;;;0.13;0.13;;;;;;;15.58;59.64;98609.84;3149464;28;20071;-72
2022/01/31 04:39:49;;;;;;;0.30;0.25;;;;;;;15.58;59.80;98609.84;3150064;28;20063;-71
2022/01/31 04:41:21;;;;;;;0.22;0.20;;;;;;;15.59;59.70;98605.31;3150118;28;20083;-72
2022/01/31 04:42:53;;;;;;;0.38;0.30;;;;;;;15.59;59.69;98597.28;3150338;28;20048;-72
2022/01/31 04:44:25;;;;;;;0.30;0.30;;;;;;;15.59;59.59;98599.97;3148773;28;20539;-72
2022/01/31 04:46:00;;;;;;;0.25;0.25;;;;;;;15.59;59.68;98608.00;3150876;28;20616;-72
2022/01/31 04:47:32;;;;;;;0.52;0.35;;;;;;;15.59;59.58;98602.66;3148495;28;20051;-72
2022/01/31 04:49:03;;;;;;;;;;;;;;;15.59;59.76;98597.28;3152839;28;20052;-72
2022/01/31 04:50:35;;;;;;;0.95;0.20;;;;;;;15.59;59.69;98602.66;3151483;28;19947;-72
2022/01/31 04:52:07;;;;;;;;;;;;;;;15.60;59.59;98598.94;3152370;28;20078;-72
2022/01/31 04:53:40;;;;;;;0.17;0.17;;;;;;;15.59;59.56;98599.97;3148317;28;19927;-72
2022/01/31 04:55:13;;;;;;;0.20;0.20;;;;;;;15.59;59.59;98592.78;3151152;28;20673;-72
2022/01/31 04:56:46;;;;;;;0.57;0.30;;;;;;;15.59;59.75;98582.06;3150112;28;20055;-73
2022/01/31 04:58:20;;;;;;;0.30;0.30;;;;;;;15.60;59.77;98574.88;3149279;28;20404;-72
2022/01/31 04:59:52;;;;;;;0.32;0.30;;;;;;;15.59;59.56;98562.53;3149971;28;20707;-72
2022/01/31 05:01:24;;;;;;;0.65;0.30;;;;;;;15.58;59.60;98564.38;3147210;28;20139;-72
2022/01/31 05:02:56;;;;;;;0.30;0.30;;;;;;;15.59;59.54;98567.88;3151082;28;20143;-72
2022/01/31 05:04:28;;;;;;;0.32;0.30;;;;;;;15.59;59.65;98567.88;3146443;28;20036;-72
2022/01/31 05:06:00;;;;;;;;;;;;;;;15.60;59.75;98572.22;3149299;28;20058;-72
2022/01/31 05:07:33;;;;;;;0.40;0.40;;;;;;;15.60;59.56;98578.41;3147653;28;19924;-72
2022/01/31 05:09:05;;;;;;;0.13;0.10;;;;;;;15.62;59.57;98586.22;3148025;28;20086;-72
2022/01/31 05:10:43;;;;;;;0.15;0.10;;;;;;;15.64;59.73;98585.03;3147394;28;20040;-72
2022/01/31 05:12:15;;;;;;;0.57;0.22;;;;;;;15.70;59.83;98588.00;3149934;28;20097;-72
2022/01/31 05:13:46;;;;;;;0.50;0.30;;;;;;;15.76;59.77;98589.94;3150138;28;20051;-72
2022/01/31 05:15:17;;;;;;;0.10;0.10;;;;;;;15.84;59.73;98590.66;3150419;28;20082;-72
2022/01/31 05:16:49;;;;;;;;;;;;;;;15.92;59.53;98586.25;3150834;28;20043;-72
2022/01/31 05:18:21;;;;;;;0.77;0.40;;;;;;;15.99;59.48;98584.44;3148490;28;19924;-72
2022/01/31 05:19:53;;;;;;;0.28;0.20;;;;;;;16.08;59.13;98592.19;3146906;28;20052;-72
2022/01/31 05:21:25;;;;;;;0.20;0.20;;;;;;;16.15;59.15;98592.25;3147884;28;20157;-72
2022/01/31 05:22:56;;;;;;;;;;;;;;;16.22;59.02;98589.69;3149902;28;20051;-72
2022/01/31 05:24:28;;;;;;;0.10;0.10;;;;;;;16.28;58.92;98592.41;3146419;28;19950;-72
2022/01/31 05:26:02;;;;;;;0.30;0.25;;;;;;;16.31;58.88;98594.72;3148354;28;20052;-72
2022/01/31 05:27:33;;;;;;;0.20;0.20;;;;;;;16.37;58.85;98594.97;3150125;28;20109;-72
2022/01/31 05:29:05;;;;;;;0.65;0.28;;;;;;;16.40;58.80;98600.78;3148162;28;20055;-72
2022/01/31 05:30:37;;;;;;;;;;;;;;;16.45;58.86;98592.19;3149678;28;20679;-72
2022/01/31 05:32:09;;;;;;;0.10;0.10;;;;;;;16.48;58.76;98581.09;3148795;28;20038;-72
2022/01/31 05:33:40;;;;;;;;;;;;;;;16.50;58.67;98574.53;3149601;28;20052;-72
2022/01/31 05:35:12;;;;;;;0.52;0.32;;;;;;;16.53;58.58;98578.66;3150119;28;19935;-72
2022/01/31 05:36:44;;;;;;;0.38;0.38;;;;;;;16.56;58.69;98582.81;3150164;28;20051;-72
2022/01/31 05:38:15;;;;;;;0.30;0.28;;;;;;;16.57;58.70;98585.28;3148187;28;20056;-72
2022/01/31 05:39:47;;;;;;;;;;;;;;;16.60;58.63;98584.91;3150114;28;20044;-72
2022/01/31 05:41:20;;;;;;;0.38;0.38;;;;;;;16.62;58.52;98588.22;3147722;28;19924;-72
2022/01/31 05:42:52;;;;;;;0.30;0.30;;;;;;;16.64;58.62;98586.19;3148854;28;20656;-72
2022/01/31 05:44:25;;;;;;;1.83;0.55;;;;;;;16.69;58.61;98594.47;3147112;28;20044;-72
2022/01/31 05:45:57;;;;;;;0.20;0.20;;;;;;;16.70;58.59;98585.41;3149148;28;20695;-72
2022/01/31 05:47:28;;;;;;;;;;;;;;;16.72;58.52;98588.72;3148262;28;20076;-72
2022/01/31 05:49:00;;;;;;;0.20;0.10;;;;;;;16.73;58.57;98579.66;3147234;28;19920;-72
2022/01/31 05:50:32;;;;;;;0.20;0.20;;;;;;;16.77;58.52;98580.16;3150015;28;20047;-72
2022/01/31 05:52:07;;;;;;;0.30;0.30;;;;;;;16.80;58.27;98576.25;3149127;28;20075;-72
2022/01/31 05:53:38;;;;;;;0.38;0.22;;;;;;;16.84;58.34;98583.72;3149385;28;20139;-72
2022/01/31 05:55:10;;;;;;;0.35;0.28;;;;;;;16.87;58.31;98571.78;3150884;28;20051;-72
2022/01/31 05:56:44;;;;;;;0.65;0.30;;;;;;;16.89;58.22;98564.38;3148755;28;20746;-72
2022/01/31 05:58:16;;;;;;;0.25;0.25;;;;;;;16.91;58.27;98560.50;3146994;28;20096;-72
2022/01/31 05:59:48;;;;;;;0.22;0.10;;;;;;;16.93;58.26;98557.59;3148560;28;20046;-72
2022/01/31 06:01:19;;;;;;;;;;;;;;;16.93;58.13;98557.59;3148779;28;20071;-72
2022/01/31 06:02:58;;;;;;;0.28;0.28;;;;;;;16.96;58.21;98557.22;3147650;28;19935;-72
2022/01/31 06:04:30;;;;;;;0.20;0.20;;;;;;;16.97;58.11;98564.25;3148912;28;20079;-72
2022/01/31 06:06:03;;;;;;;0.20;0.20;;;;;;;16.98;58.06;98569.41;3149112;28;20044;-72
2022/01/31 06:07:34;;;;;;;2.33;0.95;;;;;;;16.97;58.21;98570.44;3145983;28;20044;-72
2022/01/31 06:09:07;;;;;;;0.38;0.30;;;;;;;16.98;58.22;98560.53;3150146;28;20052;-72
2022/01/31 06:10:43;;;;;;;0.35;0.15;;;;;;;16.98;58.16;98556.00;3145246;28;20048;-72
2022/01/31 06:12:16;;;;;;;0.30;0.20;;;;;;;16.98;58.30;98549.81;3149663;28;20067;-72
2022/01/31 06:13:48;;;;;;;0.40;0.20;;;;;;;16.98;58.38;98536.41;3146211;28;20063;-72
2022/01/31 06:15:20;;;;;;;0.20;0.20;;;;;;;16.98;58.24;98533.75;3144008;28;20052;-72
2022/01/31 06:16:52;;;;;;;0.17;0.17;;;;;;;16.99;58.22;98535.38;3144917;28;20055;-72
2022/01/31 06:18:24;;;;;;;0.38;0.13;;;;;;;17.00;58.21;98533.56;3145220;28;20040;-72
2022/01/31 06:19:56;;;;;;;0.32;0.30;;;;;;;17.01;58.28;98525.31;3143425;28;20105;-72
2022/01/31 06:21:27;;;;;;;0.25;0.20;;;;;;;17.01;58.28;98527.16;3143165;28;20444;-72
2022/01/31 06:23:00;;;;;;;0.20;0.10;;;;;;;17.01;58.27;98527.16;3145191;28;20051;-72
2022/01/31 06:24:31;;;;;;;0.20;0.20;;;;;;;17.01;58.26;98535.22;3143315;28;20048;-72
2022/01/31 06:26:03;;;;;;;0.57;0.43;;;;;;;17.04;58.22;98538.31;3149022;28;20044;-72
2022/01/31 06:27:36;;;;;;;0.30;0.22;;;;;;;17.06;58.05;98538.13;3144347;28;20048;-73
2022/01/31 06:29:09;;;;;;;0.43;0.30;;;;;;;17.06;58.14;98536.28;3143606;28;20572;-72
2022/01/31 06:30:40;;;;;;;0.30;0.20;;;;;;;17.03;58.09;98536.66;3145906;28;20063;-72
2022/01/31 06:32:12;;;;;;;0.20;0.13;;;;;;;17.04;58.10;98541.00;3144177;28;20621;-72
2022/01/31 06:33:45;;;;;;;0.20;0.20;;;;;;;17.04;58.25;98556.25;3145852;28;20052;-73
2022/01/31 06:35:17;;;;;;;0.20;0.20;;;;;;;17.02;58.18;98556.47;3145382;28;20040;-73
2022/01/31 06:36:49;;;;;;;0.32;0.32;;;;;;;17.02;58.11;98543.06;3144412;28;20151;-73
2022/01/31 06:38:22;;;;;;;0.43;0.20;;;;;;;17.03;58.11;98531.31;3144682;28;20048;-72
2022/01/31 06:39:54;;;;;;;0.85;0.30;;;;;;;17.05;58.16;98531.09;3146364;28;20625;-73
2022/01/31 06:41:27;;;;;;;0.30;0.20;;;;;;;17.02;58.10;98520.78;3143927;28;20044;-73
2022/01/31 06:43:00;;;;;;;0.30;0.20;;;;;;;17.02;58.10;98529.66;3146402;28;20500;-72
2022/01/31 06:44:32;;;;;;;0.38;0.22;;;;;;;17.02;58.26;98529.66;3143279;28;20056;-73
2022/01/31 06:46:04;;;;;;;0.10;0.00;;;;;;;17.01;58.18;98525.31;3145805;28;20054;-73
2022/01/31 06:47:36;;;;;;;0.20;0.20;;;;;;;17.00;58.23;98510.28;3137248;28;20047;-72
2022/01/31 06:49:08;;;;;;;0.20;0.20;;;;;;;17.00;58.19;98496.88;3145156;28;20044;-72
2022/01/31 06:50:40;;;;;;;1.17;0.35;;;;;;;16.99;58.21;98479.13;3143397;28;20051;-72
2022/01/31 06:52:11;;;;;;;0.52;0.22;;;;;;;17.00;58.11;98477.28;3147323;28;20086;-72
2022/01/31 06:53:47;;;;;;;0.25;0.20;;;;;;;16.98;58.20;98469.44;3146379;28;20061;-72
2022/01/31 06:55:21;;;;;;;0.80;0.20;;;;;;;17.00;58.18;98475.44;3147604;28;20551;-72
2022/01/31 06:56:52;;;;;;;0.20;0.20;;;;;;;17.01;58.16;98476.25;3144659;28;20647;-72
2022/01/31 06:58:26;;;;;;;0.40;0.13;;;;;;;17.01;58.17;98477.09;3143470;28;20653;-72
2022/01/31 06:59:58;;;;;;;0.20;0.20;;;;;;;17.00;58.17;98472.75;3147230;28;20063;-72
2022/01/31 07:01:30;;;;;;;0.22;0.20;;;;;;;17.00;58.17;98478.13;3141799;28;20057;-72
2022/01/31 07:03:03;;;;;;;0.40;0.30;;;;;;;17.00;58.18;98478.13;3146535;28;20113;-72
2022/01/31 07:04:35;;;;;;;0.20;0.20;;;;;;;17.02;58.19;98491.31;3141824;28;20055;-72
2022/01/31 07:06:07;;;;;;;0.38;0.38;;;;;;;17.02;58.08;98492.16;3145503;28;20052;-72
2022/01/31 07:07:38;;;;;;;0.30;0.22;;;;;;;17.03;58.15;98485.75;3144076;28;20044;-72
2022/01/31 07:09:10;;;;;;;0.50;0.13;;;;;;;17.04;58.12;98494.63;3148425;28;20040;-72
2022/01/31 07:10:49;;;;;;;0.22;0.20;;;;;;;17.03;58.24;98496.47;3146156;28;20080;-72
2022/01/31 07:12:28;;;;;;;0.55;0.55;;;;;;;17.05;58.14;98507.84;3142771;28;20059;-72
2022/01/31 07:14:05;;;;;;;0.20;0.20;;;;;;;17.03;58.08;98506.38;3131519;28;20510;-72
2022/01/31 07:15:37;;;;;;;0.32;0.20;;;;;;;17.04;58.22;98506.16;3140842;28;20052;-72
2022/01/31 07:17:08;;;;;;;1.73;0.20;;;;;;;17.02;58.28;98497.50;3144588;28;20093;-75
2022/01/31 07:18:41;;;;;;;0.32;0.32;;;;;;;17.04;58.32;98499.97;3141692;28;20625;-72
2022/01/31 07:20:22;;;;;;;0.20;0.20;;;;;;;17.03;58.19;98492.97;3142462;28;20056;-71